createdAt,value
2022-09-20T00:02:17.416Z,99990.02
2022-09-20T00:04:32.127Z,99990.98
2022-09-20T00:06:51.703Z,99984.94
2022-09-20T00:09:06.849Z,99993.56
2022-09-20T00:10:10.934Z,99989.87
2022-09-20T00:12:32.187Z,99986.59
2022-09-20T00:14:49.444Z,99991.06
2022-09-20T00:23:23.055Z,99990.89
2022-09-20T00:24:26.622Z,99989.11
2022-09-20T00:25:30.039Z,99993.30
2022-09-20T00:26:33.530Z,99990.59
2022-09-20T00:28:48.235Z,99994.90
2022-09-20T00:29:51.478Z,99998.06
2022-09-20T00:32:07.110Z,100004.58
2022-09-20T00:34:22.081Z,99996.58
2022-09-20T00:35:25.655Z,100006.78
2022-09-20T00:36:29.427Z,99995.58
2022-09-20T00:38:57.161Z,99995.55
2022-09-20T00:41:13.667Z,99994.83
2022-09-20T00:43:44.046Z,99988.04
2022-09-20T00:46:02.610Z,99989.46
2022-09-20T00:49:39.318Z,99998.97
2022-09-20T00:50:46.399Z,99999.34
2022-09-20T00:53:12.732Z,99990.52
2022-09-20T00:54:20.558Z,99990.94
2022-09-20T00:55:25.832Z,99986.02
2022-09-20T00:57:45.438Z,99984.66
2022-09-20T01:00:14.596Z,99983.69
2022-09-20T01:02:32.289Z,99985.64
2022-09-20T01:03:38.639Z,99983.31
2022-09-20T01:04:43.473Z,99978.94
2022-09-20T01:07:02.271Z,99983.22
2022-09-20T01:08:06.707Z,99976.78
2022-09-20T01:09:10.144Z,99974.77
2022-09-20T01:10:14.443Z,99974.77
2022-09-20T01:12:32.536Z,99980.83
2022-09-20T01:14:49.666Z,99981.54
2022-09-20T01:17:06.866Z,99986.09
2022-09-20T01:18:10.861Z,99984.14
2022-09-20T01:20:32.579Z,99979.17
2022-09-20T01:23:03.313Z,99978.14
2022-09-20T01:25:54.950Z,99973.19
2022-09-20T01:28:19.826Z,99982.10
2022-09-20T01:30:53.811Z,99976.03
2022-09-20T01:39:20.010Z,99972.65
2022-09-20T01:41:59.978Z,99966.91
2022-09-20T01:44:57.548Z,99971.09
2022-09-20T01:47:48.223Z,99966.99
2022-09-20T01:55:07.156Z,99966.98
2022-09-20T01:56:17.740Z,99961.03
2022-09-20T01:59:22.570Z,99973.56
2022-09-20T02:02:00.233Z,99980.45
2022-09-20T02:04:45.934Z,99972.82
2022-09-20T02:08:00.151Z,99983.19
2022-09-20T02:09:16.776Z,99980.98
2022-09-20T02:12:07.396Z,99985.00
2022-09-20T02:16:23.720Z,99995.44
2022-09-20T02:17:35.387Z,99987.45
2022-09-20T02:20:45.874Z,99990.06
2022-09-20T02:21:59.312Z,99993.95
2022-09-20T02:24:42.446Z,99989.61
2022-09-20T02:26:07.690Z,99986.61
2022-09-20T02:28:53.968Z,99988.77
2022-09-20T02:29:59.000Z,99991.38
2022-09-20T02:32:25.554Z,99981.91
2022-09-20T02:33:47.929Z,99980.48
2022-09-20T02:34:52.777Z,99980.41
2022-09-20T02:37:49.970Z,99978.69
2022-09-20T02:44:49.740Z,99982.35
2022-09-20T02:47:34.765Z,99981.64
2022-09-20T02:50:31.784Z,99972.42
2022-09-20T02:53:25.405Z,99969.00
2022-09-20T02:54:58.364Z,99973.78
2022-09-20T02:57:35.233Z,99964.48
2022-09-20T03:01:52.109Z,99969.41
2022-09-20T03:06:16.468Z,99981.14
2022-09-20T03:07:23.598Z,99979.95
2022-09-20T03:10:08.291Z,99977.60
2022-09-20T03:13:14.437Z,99991.92
2022-09-20T03:16:03.615Z,99993.13
2022-09-20T03:19:13.097Z,99991.83
2022-09-20T03:22:34.110Z,99998.35
2022-09-20T03:25:21.361Z,99999.19
2022-09-20T03:28:06.123Z,100004.00
2022-09-20T03:29:22.462Z,99993.20
2022-09-20T03:32:21.304Z,99995.89
2022-09-20T03:33:33.976Z,99995.09
2022-09-20T03:36:29.747Z,99996.64
2022-09-20T03:39:14.320Z,100000.77
2022-09-20T03:42:10.117Z,99999.06
2022-09-20T03:51:10.355Z,99997.11
2022-09-20T03:54:11.938Z,99990.86
2022-09-20T03:56:43.311Z,99999.80
2022-09-20T04:03:55.536Z,99993.23
2022-09-20T04:06:24.414Z,100003.29
2022-09-20T04:09:36.720Z,100001.89
2022-09-20T04:12:40.211Z,100000.87
2022-09-20T04:15:54.509Z,100002.32
2022-09-20T04:24:00.647Z,100009.94
2022-09-20T04:26:31.553Z,100006.56
2022-09-20T04:29:23.760Z,100005.80
2022-09-20T04:30:30.796Z,100011.78
2022-09-20T04:33:21.904Z,100019.16
2022-09-20T04:36:05.463Z,100017.02
2022-09-20T04:38:37.107Z,100022.33
2022-09-20T04:44:09.617Z,100020.46
2022-09-20T04:48:33.524Z,100019.05
2022-09-20T04:51:45.280Z,100022.03
2022-09-20T04:54:41.294Z,100020.50
2022-09-20T04:57:35.152Z,100028.95
2022-09-20T04:58:53.975Z,100019.92
2022-09-20T05:01:44.832Z,100027.70
2022-09-20T05:04:45.693Z,100034.95
2022-09-20T05:07:45.527Z,100029.84
2022-09-20T05:10:19.606Z,100024.92
2022-09-20T05:13:13.178Z,100029.02
2022-09-20T05:17:44.022Z,100025.41
2022-09-20T05:20:22.550Z,100020.94
2022-09-20T05:21:38.845Z,100022.36
2022-09-20T05:24:36.888Z,100019.70
2022-09-20T05:25:53.291Z,100017.14
2022-09-20T05:27:09.602Z,100018.17
2022-09-20T05:29:52.676Z,100017.20
2022-09-20T05:34:46.126Z,100013.64
2022-09-20T05:37:32.270Z,100025.70
2022-09-20T05:41:54.552Z,100019.53
2022-09-20T05:44:50.291Z,100015.15
2022-09-20T05:47:33.745Z,100012.83
2022-09-20T05:50:15.390Z,100001.86
2022-09-20T05:53:10.665Z,100012.89
2022-09-20T05:54:50.064Z,100014.61
2022-09-20T05:57:24.089Z,100018.50
2022-09-20T05:58:43.530Z,100026.17
2022-09-20T06:01:32.427Z,100026.68
2022-09-20T06:04:15.456Z,100017.04
2022-09-20T06:07:19.343Z,100025.17
2022-09-20T06:10:17.329Z,100019.45
2022-09-20T06:13:19.907Z,100018.12
2022-09-20T06:16:05.314Z,100014.13
2022-09-20T06:18:59.610Z,100020.84
2022-09-20T06:21:50.586Z,100023.74
2022-09-20T06:24:33.520Z,100018.16
2022-09-20T06:27:01.311Z,100014.61
2022-09-20T06:30:41.979Z,100009.19
2022-09-20T06:32:58.839Z,100012.64
2022-09-20T06:35:21.961Z,100012.08
2022-09-20T06:37:52.522Z,100012.92
2022-09-20T06:39:02.853Z,100018.05
2022-09-20T06:40:21.590Z,100012.89
2022-09-20T06:42:37.569Z,100013.98
2022-09-20T06:44:53.450Z,100011.32
2022-09-20T06:47:13.197Z,100016.87
2022-09-20T06:49:28.297Z,100004.62
2022-09-20T06:51:44.492Z,99999.61
2022-09-20T06:53:59.564Z,99994.77
2022-09-20T06:56:20.868Z,99998.25
2022-09-20T06:58:41.183Z,100004.96
2022-09-20T07:00:56.728Z,100014.22
2022-09-20T07:03:13.625Z,100023.21
2022-09-20T07:05:29.364Z,100023.16
2022-09-20T07:07:49.057Z,100021.26
2022-09-20T07:08:52.886Z,100020.62
2022-09-20T07:11:14.902Z,100012.81
2022-09-20T07:13:39.262Z,100007.73
2022-09-20T07:15:59.815Z,100013.18
2022-09-20T07:18:16.210Z,100008.45
2022-09-20T07:20:32.391Z,100012.77
2022-09-20T07:23:00.639Z,100012.05
2022-09-20T07:25:16.357Z,100018.20
2022-09-20T07:27:38.965Z,100011.86
2022-09-20T07:28:42.734Z,100018.30
2022-09-20T07:30:58.426Z,100014.42
2022-09-20T07:33:13.649Z,100015.56
2022-09-20T07:35:32.805Z,100021.71
2022-09-20T07:37:47.673Z,100011.91
2022-09-20T07:40:05.594Z,100007.30
2022-09-20T07:42:21.295Z,100002.52
2022-09-20T07:43:27.840Z,100013.72
2022-09-20T07:44:31.736Z,100009.78
2022-09-20T07:46:57.064Z,100016.63
2022-09-20T07:49:19.229Z,100012.72
2022-09-20T07:51:35.032Z,100013.95
2022-09-20T07:53:54.575Z,100018.16
2022-09-20T07:54:58.070Z,100020.50
2022-09-20T07:57:20.202Z,100022.69
2022-09-20T07:59:34.923Z,100019.34
2022-09-20T08:16:51.530Z,100021.63
2022-09-20T08:19:07.200Z,100022.03
2022-09-20T08:20:11.716Z,100015.57
2022-09-20T08:22:30.658Z,100018.98
2022-09-20T08:24:49.747Z,100021.71
2022-09-20T08:27:07.753Z,100017.98
2022-09-20T08:29:23.218Z,100016.58
2022-09-20T08:31:39.805Z,100009.50
2022-09-20T08:33:57.788Z,100017.50
2022-09-20T08:37:27.484Z,100017.50
2022-09-20T08:40:51.753Z,100013.12
2022-09-20T08:43:34.094Z,100016.50
2022-09-20T08:46:05.955Z,100018.83
2022-09-20T08:48:37.614Z,100012.80
2022-09-20T08:49:46.197Z,100013.30
2022-09-20T08:52:02.280Z,100014.51
2022-09-20T08:53:05.803Z,100011.85
2022-09-20T08:54:12.011Z,100012.91
2022-09-20T08:55:28.108Z,100009.13
2022-09-20T08:59:07.532Z,100005.76
2022-09-20T09:01:30.535Z,100005.94
2022-09-20T09:04:58.544Z,100006.22
2022-09-20T09:07:19.845Z,100008.14
2022-09-20T09:09:45.217Z,100013.77
2022-09-20T09:14:50.575Z,100008.55
2022-09-20T09:17:11.281Z,100002.05
2022-09-20T09:18:15.072Z,100004.42
2022-09-20T09:19:33.262Z,100002.97
2022-09-20T09:23:26.084Z,100005.20
2022-09-20T09:26:25.012Z,100006.66
2022-09-20T09:28:39.639Z,100002.48
2022-09-20T09:29:54.451Z,99997.72
2022-09-20T09:32:31.970Z,99991.47
2022-09-20T09:34:46.288Z,99992.70
2022-09-20T09:37:28.492Z,99990.60
2022-09-20T09:38:33.067Z,99991.89
2022-09-20T09:39:36.651Z,99992.11
2022-09-20T09:41:55.811Z,99988.25
2022-09-20T09:45:35.820Z,99980.06
2022-09-20T09:47:52.963Z,99981.08
2022-09-20T09:49:16.383Z,99985.09
2022-09-20T09:51:36.516Z,99988.73
2022-09-20T09:53:51.324Z,99989.97
2022-09-20T09:54:56.343Z,99981.18
2022-09-20T09:57:37.860Z,99992.38
2022-09-20T10:00:20.329Z,99988.06
2022-09-20T10:03:07.222Z,99978.00
2022-09-20T10:05:32.153Z,99979.75
2022-09-20T10:08:21.471Z,99969.94
2022-09-20T10:11:03.294Z,99980.66
2022-09-20T10:13:57.394Z,99978.39
2022-09-20T10:16:53.293Z,99972.20
2022-09-20T10:19:42.982Z,99967.47
2022-09-20T10:22:11.197Z,99960.80
2022-09-20T10:23:51.573Z,99966.12
2022-09-20T10:26:41.908Z,99958.96
2022-09-20T10:29:33.825Z,99957.73
2022-09-20T10:32:28.327Z,99957.55
2022-09-20T10:33:47.761Z,99953.89
2022-09-20T10:35:28.607Z,99955.34
2022-09-20T10:38:19.514Z,99946.66
2022-09-20T10:40:59.857Z,99948.63
2022-09-20T10:45:03.488Z,99943.23
2022-09-20T10:47:46.929Z,99939.02
2022-09-20T10:50:24.128Z,99934.88
2022-09-20T10:53:17.920Z,99938.29
2022-09-20T10:56:03.892Z,99939.73
2022-09-20T10:58:58.071Z,99941.47
2022-09-20T11:01:48.884Z,99939.88
2022-09-20T11:04:33.418Z,99939.72
2022-09-20T11:07:27.928Z,99944.48
2022-09-20T11:08:34.626Z,99942.22
2022-09-20T11:10:58.941Z,99941.74
2022-09-20T11:13:53.693Z,99940.91
2022-09-20T11:16:34.366Z,99934.61
2022-09-20T11:18:58.550Z,99940.08
2022-09-20T11:21:36.115Z,99934.39
2022-09-20T11:24:29.855Z,99936.86
2022-09-20T11:26:54.531Z,99940.02
2022-09-20T11:29:50.224Z,99937.52
2022-09-20T11:33:58.438Z,99925.39
2022-09-20T11:36:47.752Z,99935.81
2022-09-20T11:39:29.641Z,99931.64
2022-09-20T11:41:50.972Z,99932.23
2022-09-20T11:44:13.411Z,99925.37
2022-09-20T11:45:17.793Z,99920.60
2022-09-20T11:47:54.427Z,99921.59
2022-09-20T11:50:31.313Z,99917.61
2022-09-20T11:53:02.777Z,99920.30
2022-09-20T11:56:53.272Z,99911.91
2022-09-20T12:02:21.428Z,99920.11
2022-09-20T12:04:43.960Z,99918.25
2022-09-20T12:08:31.174Z,99915.97
2022-09-20T12:13:57.553Z,99901.67
2022-09-20T12:15:03.919Z,99902.73
2022-09-20T12:17:50.521Z,99902.11
2022-09-20T12:18:57.615Z,99894.23
2022-09-20T12:20:01.196Z,99907.61
2022-09-20T12:22:28.303Z,99890.20
2022-09-20T12:23:41.658Z,99889.22
2022-09-20T12:24:45.717Z,99884.98
2022-09-20T12:27:32.235Z,99882.45
2022-09-20T12:29:55.593Z,99879.51
2022-09-20T12:32:43.053Z,99892.28
2022-09-20T12:36:55.280Z,99891.30
2022-09-20T12:39:36.186Z,99895.02
2022-09-20T12:42:04.081Z,99901.50
2022-09-20T12:44:46.436Z,99893.83
2022-09-20T12:47:24.054Z,99890.84
2022-09-20T12:49:52.719Z,99882.44
2022-09-20T12:52:45.590Z,99888.71
2022-09-20T12:55:34.580Z,99888.08
2022-09-20T12:57:55.282Z,99882.38
2022-09-20T13:00:14.996Z,99880.67
2022-09-20T13:02:55.600Z,99871.86
2022-09-20T13:05:50.445Z,99870.34
2022-09-20T13:08:16.079Z,99862.54
2022-09-20T13:10:35.870Z,99863.37
2022-09-20T13:13:00.815Z,99858.77
2022-09-20T13:15:31.591Z,99858.38
2022-09-20T13:17:57.607Z,99860.95
2022-09-20T13:20:26.193Z,99857.22
2022-09-20T13:22:47.143Z,99856.84
2022-09-20T13:25:06.571Z,99848.29
2022-09-20T13:27:26.563Z,99861.91
2022-09-20T13:29:45.732Z,99857.34
2022-09-20T13:30:49.861Z,99856.09
2022-09-20T13:33:22.619Z,99857.95
2022-09-20T13:35:37.629Z,99853.38
2022-09-20T13:37:56.637Z,99852.95
2022-09-20T13:39:00.342Z,99859.05
2022-09-20T13:41:17.508Z,99851.69
2022-09-20T13:43:46.328Z,99850.02
2022-09-20T13:46:14.750Z,99849.83
2022-09-20T13:58:45.013Z,99856.14
2022-09-20T14:01:05.167Z,99845.53
2022-09-20T14:03:36.856Z,99838.09
2022-09-20T14:05:56.596Z,99830.15
2022-09-20T14:08:19.313Z,99833.11
2022-09-20T14:10:40.834Z,99834.78
2022-09-20T14:12:58.983Z,99833.30
2022-09-20T14:15:17.250Z,99831.66
2022-09-20T14:17:37.260Z,99820.35
2022-09-20T14:21:11.166Z,99822.68
2022-09-20T14:23:54.197Z,99837.05
2022-09-20T14:26:31.888Z,99828.70
2022-09-20T14:28:47.775Z,99828.48
2022-09-20T14:31:09.600Z,99821.98
2022-09-20T14:32:23.084Z,99823.05
2022-09-20T14:34:40.282Z,99824.06
2022-09-20T14:35:51.260Z,99821.78
2022-09-20T14:38:14.668Z,99824.22
2022-09-20T14:40:42.462Z,99825.89
2022-09-20T14:44:22.559Z,99826.09
2022-09-20T14:46:47.648Z,99833.56
2022-09-20T14:49:25.343Z,99831.39
2022-09-20T14:51:45.331Z,99838.46
2022-09-20T14:53:04.521Z,99837.69
2022-09-20T14:55:24.622Z,99846.68
2022-09-20T15:03:32.503Z,99847.53
2022-09-20T15:05:50.184Z,99839.16
2022-09-20T15:06:56.088Z,99843.59
2022-09-20T15:09:12.843Z,99841.88
2022-09-20T15:10:17.764Z,99847.89
2022-09-20T15:12:38.464Z,99840.80
2022-09-20T15:14:54.444Z,99848.94
2022-09-20T15:17:14.133Z,99853.53
2022-09-20T15:19:41.410Z,99847.48
2022-09-20T15:20:45.253Z,99849.37
2022-09-20T15:23:02.960Z,99839.95
2022-09-20T15:25:20.915Z,99849.77
2022-09-20T15:27:40.053Z,99844.77
2022-09-20T15:29:56.879Z,99845.81
2022-09-20T15:31:00.947Z,99850.41
2022-09-20T15:33:17.121Z,99850.83
2022-09-20T15:35:32.415Z,99855.63
2022-09-20T15:37:49.730Z,99862.11
2022-09-20T15:40:08.024Z,99854.59
2022-09-20T15:41:12.409Z,99858.77
2022-09-20T15:43:30.348Z,99850.83
2022-09-20T15:47:06.331Z,99864.83
2022-09-20T15:48:10.091Z,99862.73
2022-09-20T15:50:26.536Z,99867.12
2022-09-20T15:51:30.568Z,99864.20
2022-09-20T15:54:01.912Z,99865.66
2022-09-20T15:56:20.842Z,99865.03
2022-09-20T15:58:38.149Z,99866.28
2022-09-20T16:00:56.542Z,99862.94
2022-09-20T16:03:12.576Z,99864.61
2022-09-20T16:05:31.888Z,99865.45
2022-09-20T16:07:50.511Z,99866.08
2022-09-20T16:10:08.473Z,99869.00
2022-09-20T16:12:26.861Z,99870.66
2022-09-20T16:14:42.441Z,99877.98
2022-09-20T16:17:01.887Z,99882.78
2022-09-20T16:19:18.210Z,99883.20
2022-09-20T16:21:41.638Z,99882.36
2022-09-20T16:25:10.997Z,99885.50
2022-09-20T16:26:16.290Z,99878.41
2022-09-20T16:28:32.602Z,99881.76
2022-09-20T16:32:11.040Z,99883.20
2022-09-20T16:34:29.274Z,99877.78
2022-09-20T16:36:47.359Z,99871.68
2022-09-20T16:39:02.733Z,99868.12
2022-09-20T16:41:20.886Z,99878.95
2022-09-20T16:43:39.274Z,99868.31
2022-09-20T16:46:00.914Z,99874.55
2022-09-20T16:47:06.865Z,99864.70
2022-09-20T16:49:22.859Z,99871.19
2022-09-20T16:51:40.704Z,99872.03
2022-09-20T16:53:57.336Z,99871.03
2022-09-20T16:56:27.968Z,99868.34
2022-09-20T16:58:43.815Z,99871.25
2022-09-20T16:59:48.291Z,99872.88
2022-09-20T17:00:51.995Z,99865.38
2022-09-20T17:03:14.718Z,99857.46
2022-09-20T17:05:30.723Z,99857.65
2022-09-20T17:07:49.094Z,99856.98
2022-09-20T17:10:06.454Z,99856.78
2022-09-20T17:12:29.434Z,99854.05
2022-09-20T17:14:45.372Z,99851.78
2022-09-20T17:17:03.338Z,99857.84
2022-09-20T17:19:20.406Z,99856.83
2022-09-20T17:22:52.503Z,99850.94
2022-09-20T17:25:10.751Z,99850.14
2022-09-20T17:27:32.946Z,99858.00
2022-09-20T17:29:50.554Z,99858.84
2022-09-20T17:32:13.327Z,99861.20
2022-09-20T17:34:28.728Z,99863.11
2022-09-20T17:35:32.699Z,99860.98
2022-09-20T17:37:53.005Z,99858.13
2022-09-20T17:40:11.107Z,99867.78
2022-09-20T17:42:32.657Z,99852.50
2022-09-20T17:44:49.343Z,99863.95
2022-09-20T17:45:54.219Z,99867.90
2022-09-20T17:48:10.769Z,99868.12
2022-09-20T17:50:30.217Z,99866.11
2022-09-20T17:52:53.885Z,99875.22
2022-09-20T17:55:09.693Z,99877.16
2022-09-20T17:57:26.239Z,99886.98
2022-09-20T17:59:41.597Z,99889.52
2022-09-20T18:00:45.428Z,99880.03
2022-09-20T18:01:50.475Z,99887.30
2022-09-20T18:04:07.300Z,99882.38
2022-09-20T18:06:29.450Z,99888.42
2022-09-20T18:08:46.931Z,99884.70
2022-09-20T18:09:50.499Z,99893.42
2022-09-20T18:12:08.781Z,99886.13
2022-09-20T18:14:26.903Z,99899.01
2022-09-20T18:15:32.792Z,99904.59
2022-09-20T18:16:36.950Z,99895.63
2022-09-20T18:18:53.109Z,99901.48
2022-09-20T18:19:57.631Z,99902.73
2022-09-20T18:21:16.314Z,99902.73
2022-09-20T18:22:20.103Z,99913.12
2022-09-20T18:24:35.134Z,99905.60
2022-09-20T18:25:38.822Z,99904.45
2022-09-20T18:26:42.965Z,99918.83
2022-09-20T18:29:04.039Z,99915.28
2022-09-20T18:31:22.576Z,99920.26
2022-09-20T18:33:40.419Z,99912.33
2022-09-20T18:34:44.592Z,99911.02
2022-09-20T18:35:48.665Z,99916.55
2022-09-20T18:36:54.641Z,99916.42
2022-09-20T18:39:10.678Z,99928.39
2022-09-20T18:41:31.945Z,99933.31
2022-09-20T18:43:47.356Z,99930.75
2022-09-20T18:44:50.826Z,99930.23
2022-09-20T18:45:54.081Z,99933.13
2022-09-20T18:46:57.879Z,99930.03
2022-09-20T18:49:14.603Z,99929.95
2022-09-20T18:50:19.683Z,99936.36
2022-09-20T18:52:36.999Z,99928.35
2022-09-20T18:54:52.951Z,99921.09
2022-09-20T18:56:09.066Z,99921.89
2022-09-20T18:57:13.138Z,99922.30
2022-09-20T18:59:31.802Z,99908.98
2022-09-20T19:01:54.105Z,99912.93
2022-09-20T19:04:45.618Z,99907.70
2022-09-20T19:07:16.656Z,99908.58
2022-09-20T19:09:58.335Z,99905.84
2022-09-20T19:11:05.630Z,99909.51
2022-09-20T19:13:43.680Z,99923.45
2022-09-20T19:17:58.953Z,99913.37
2022-09-20T19:20:55.250Z,99915.64
2022-09-20T19:23:49.570Z,99922.88
2022-09-20T19:26:29.975Z,99926.17
2022-09-20T19:27:34.215Z,99933.13
2022-09-20T19:29:56.918Z,99927.38
2022-09-20T19:31:00.896Z,99925.20
2022-09-20T19:32:05.836Z,99928.36
2022-09-20T19:34:29.925Z,99920.04
2022-09-20T19:37:07.212Z,99933.13
2022-09-20T19:38:31.811Z,99931.15
2022-09-20T19:44:16.869Z,99924.50
2022-09-20T19:45:56.130Z,99922.30
2022-09-20T19:48:34.020Z,99922.05
2022-09-20T19:51:12.712Z,99919.59
2022-09-20T19:52:17.308Z,99923.67
2022-09-20T19:53:22.825Z,99924.70
2022-09-20T19:55:38.242Z,99922.25
2022-09-20T19:57:57.874Z,99923.87
2022-09-20T20:00:15.529Z,99928.69
2022-09-20T20:01:21.144Z,99927.13
2022-09-20T20:02:25.384Z,99937.12
2022-09-20T20:04:40.861Z,99936.42
2022-09-20T20:07:06.088Z,99937.06
2022-09-20T20:09:46.716Z,99948.48
2022-09-20T20:11:13.984Z,99935.92
2022-09-20T20:13:48.157Z,99929.97
2022-09-20T20:15:23.638Z,99931.45
2022-09-20T20:17:54.229Z,99933.91
2022-09-20T20:20:53.478Z,99922.00
2022-09-20T20:22:23.441Z,99924.17
2022-09-20T20:24:55.255Z,99919.18
2022-09-20T20:26:11.120Z,99929.95
2022-09-20T20:27:14.832Z,99918.75
2022-09-20T20:28:18.525Z,99922.39
2022-09-20T20:30:36.457Z,99917.82
2022-09-20T20:31:39.937Z,99922.67
2022-09-20T20:32:43.470Z,99919.69
2022-09-20T20:34:58.934Z,99918.98
2022-09-20T20:36:02.491Z,99922.61
2022-09-20T20:37:06.835Z,99923.05
2022-09-20T20:39:21.651Z,99933.17
2022-09-20T20:40:25.986Z,99924.77
2022-09-20T20:42:41.785Z,99914.08
2022-09-20T20:45:01.029Z,99855.57
2022-09-20T20:46:07.085Z,99857.61
2022-09-20T20:47:10.974Z,99852.95
2022-09-20T20:48:14.296Z,99856.00
2022-09-20T20:50:28.815Z,99862.96
2022-09-20T20:51:32.147Z,99858.21
2022-09-20T20:55:01.948Z,99864.26
2022-09-20T20:56:08.319Z,99854.02
2022-09-20T20:58:23.666Z,99854.84
2022-09-20T21:00:38.560Z,99854.92
2022-09-20T21:01:42.847Z,99852.75
2022-09-20T21:03:59.368Z,99851.97
2022-09-20T21:06:16.567Z,99848.92
2022-09-20T21:07:20.489Z,99851.63
2022-09-20T21:09:38.060Z,99848.39
2022-09-20T21:10:42.050Z,99850.69
2022-09-20T21:11:46.023Z,99854.02
2022-09-20T21:14:02.596Z,99852.92
2022-09-20T21:17:36.380Z,99852.08
2022-09-20T21:20:00.021Z,99850.85
2022-09-20T21:22:35.763Z,99851.73
2022-09-20T21:25:01.333Z,99847.45
2022-09-20T21:26:07.560Z,99848.53
2022-09-20T21:27:11.391Z,99843.41
2022-09-20T21:28:14.841Z,99851.64
2022-09-20T21:30:29.676Z,99854.42
2022-09-20T21:31:36.124Z,99848.56
2022-09-20T21:33:51.919Z,99856.30
2022-09-20T21:36:08.142Z,99856.74
2022-09-20T21:37:11.681Z,99852.64
2022-09-20T21:38:16.047Z,99851.06
2022-09-20T21:40:30.842Z,99845.42
2022-09-20T21:42:48.168Z,99842.55
2022-09-20T21:45:09.080Z,99841.70
2022-09-20T21:47:30.723Z,99841.47
2022-09-20T21:49:46.733Z,99835.67
2022-09-20T21:50:50.618Z,99838.40
2022-09-20T21:51:53.975Z,99832.08
2022-09-20T21:52:57.262Z,99829.87
2022-09-20T21:55:13.013Z,99841.41
2022-09-20T21:57:29.219Z,99839.12
2022-09-20T21:59:44.476Z,99842.66
2022-09-20T22:00:59.057Z,99839.49
2022-09-20T22:02:06.132Z,99834.66
2022-09-20T22:03:11.757Z,99835.72
2022-09-20T22:05:26.327Z,99832.39
2022-09-20T22:07:44.756Z,99840.28
2022-09-20T22:10:05.554Z,99836.16
2022-09-20T22:11:14.536Z,99835.65
2022-09-20T22:12:14.780Z,99843.27
2022-09-20T22:14:29.394Z,99839.20
2022-09-20T22:15:33.419Z,99835.13
2022-09-20T22:17:50.672Z,99834.33
2022-09-20T22:20:07.069Z,99834.27
2022-09-20T22:22:26.303Z,99833.70
2022-09-20T22:24:42.451Z,99831.56
2022-09-20T22:25:46.411Z,99831.33
2022-09-20T22:26:50.516Z,99833.16
2022-09-20T22:28:13.746Z,99827.48
2022-09-20T22:30:29.281Z,99821.11
2022-09-20T22:31:36.853Z,99825.68
2022-09-20T22:33:57.124Z,99836.59
2022-09-20T22:36:15.509Z,99841.72
2022-09-20T22:37:18.956Z,99835.77
2022-09-20T22:39:35.008Z,99833.06
2022-09-20T22:41:53.424Z,99838.62
2022-09-20T22:42:58.663Z,99835.56
2022-09-20T22:45:14.768Z,99834.25
2022-09-20T22:46:21.375Z,99843.38
2022-09-20T22:47:25.179Z,99839.45
2022-09-20T22:49:42.859Z,99841.37
2022-09-20T22:51:58.222Z,99841.50
2022-09-20T22:54:13.116Z,99831.61
2022-09-20T22:55:16.503Z,99836.79
2022-09-20T22:56:32.393Z,99837.78
2022-09-20T22:57:36.017Z,99843.31
2022-09-20T22:59:55.911Z,99836.01
2022-09-20T23:01:14.828Z,99839.45
2022-09-20T23:03:29.256Z,99840.66
2022-09-20T23:05:43.791Z,99847.80
2022-09-20T23:08:01.430Z,99842.19
2022-09-20T23:10:19.270Z,99835.78
2022-09-20T23:11:23.567Z,99841.34
2022-09-20T23:12:26.918Z,99839.36
2022-09-20T23:13:30.345Z,99837.80
2022-09-20T23:15:46.882Z,99841.70
2022-09-20T23:16:50.568Z,99834.47
2022-09-20T23:17:54.065Z,99836.73
2022-09-20T23:20:11.185Z,99833.89
2022-09-20T23:21:15.049Z,99838.52
2022-09-20T23:23:31.839Z,99841.70
2022-09-20T23:25:46.780Z,99837.22
2022-09-20T23:26:51.152Z,99843.16
2022-09-20T23:27:54.399Z,99836.62
2022-09-20T23:30:12.843Z,99831.97
2022-09-20T23:31:17.389Z,99833.78
2022-09-20T23:32:20.805Z,99834.48
2022-09-20T23:34:35.863Z,99831.02
2022-09-20T23:35:46.146Z,99829.83
2022-09-20T23:36:49.489Z,99829.70
2022-09-20T23:39:08.739Z,99826.88
2022-09-20T23:40:12.543Z,99835.31
2022-09-20T23:43:43.333Z,99827.47
2022-09-20T23:44:48.061Z,99826.16
2022-09-20T23:45:51.353Z,99830.56
2022-09-20T23:46:54.921Z,99833.53
2022-09-20T23:49:10.527Z,99837.07
2022-09-20T23:50:14.635Z,99827.95
2022-09-20T23:51:21.138Z,99833.92
2022-09-20T23:52:24.626Z,99832.91
2022-09-20T23:54:39.427Z,99841.30
2022-09-20T23:55:42.791Z,99838.00
2022-09-20T23:56:47.102Z,99840.95
2022-09-20T23:59:06.014Z,99840.23
